createdAt,value
2022-10-22T00:00:16.373Z,100922.16
2022-10-22T00:02:43.899Z,100918.59
2022-10-22T00:05:10.851Z,100920.38
2022-10-22T00:07:37.590Z,100924.16
2022-10-22T00:10:06.445Z,100925.31
2022-10-22T00:12:32.998Z,100927.47
2022-10-22T00:14:59.480Z,100925.88
2022-10-22T00:17:25.875Z,100929.56
2022-10-22T00:19:52.302Z,100928.09
2022-10-22T00:22:18.750Z,100941.28
2022-10-22T00:24:45.165Z,100939.72
2022-10-22T00:27:12.872Z,100942.53
2022-10-22T00:29:39.272Z,100941.72
2022-10-22T00:32:07.058Z,100944.53
2022-10-22T00:34:33.913Z,100941.03
2022-10-22T00:37:00.339Z,100948.19
2022-10-22T00:39:27.763Z,100949.66
2022-10-22T00:41:56.367Z,100943.38
2022-10-22T00:45:00.429Z,100952.72
2022-10-22T00:47:31.487Z,100952.63
2022-10-22T00:50:00.091Z,100959.34
2022-10-22T00:52:27.343Z,100949.38
2022-10-22T00:54:54.033Z,100948.34
2022-10-22T00:57:21.027Z,100948.44
2022-10-22T00:59:48.235Z,100950.84
2022-10-22T01:02:15.525Z,100947.38
2022-10-22T01:04:42.074Z,100945.72
2022-10-22T01:07:17.007Z,100953.69
2022-10-22T01:10:08.682Z,100948.44
2022-10-22T01:12:49.232Z,100962.28
2022-10-22T01:15:28.818Z,100956.97
2022-10-22T01:18:05.133Z,100954.16
2022-10-22T01:20:56.989Z,100956.03
2022-10-22T01:23:41.547Z,100953.69
2022-10-22T01:26:42.012Z,100946.03
2022-10-22T01:29:47.230Z,100947.50
2022-10-22T01:32:23.959Z,100948.22
2022-10-22T01:34:56.151Z,100954.41
2022-10-22T01:37:26.736Z,100960.63
2022-10-22T01:39:54.207Z,100951.78
2022-10-22T01:42:21.223Z,100948.44
2022-10-22T01:44:50.036Z,100947.59
2022-10-22T01:47:44.225Z,100960.63
2022-10-22T01:50:13.460Z,100955.56
2022-10-22T01:53:07.702Z,100946.75
2022-10-22T01:55:46.223Z,100953.06
2022-10-22T01:58:58.246Z,100946.94
2022-10-22T02:01:46.622Z,100950.53
2022-10-22T02:04:35.465Z,100948.09
2022-10-22T02:07:06.247Z,100947.28
2022-10-22T02:09:34.447Z,100938.78
2022-10-22T02:14:32.284Z,100940.63
2022-10-22T02:17:01.336Z,100934.88
2022-10-22T02:19:40.099Z,100935.09
2022-10-22T02:22:07.414Z,100924.78
2022-10-22T02:24:34.245Z,100927.63
2022-10-22T02:27:22.798Z,100923.53
2022-10-22T02:30:01.603Z,100930.63
2022-10-22T02:32:37.116Z,100921.28
2022-10-22T02:35:05.008Z,100935.34
2022-10-22T02:37:32.389Z,100935.75
2022-10-22T02:39:58.823Z,100938.88
2022-10-22T02:42:26.362Z,100926.84
2022-10-22T02:44:52.803Z,100934.91
2022-10-22T02:47:19.796Z,100937.22
2022-10-22T02:49:46.137Z,100931.91
2022-10-22T02:52:13.029Z,100937.84
2022-10-22T02:54:39.420Z,100940.47
2022-10-22T02:57:06.001Z,100934.53
2022-10-22T02:59:32.430Z,100948.66
2022-10-22T03:01:58.849Z,100952.94
2022-10-22T03:04:25.301Z,100943.50
2022-10-22T03:06:51.820Z,100947.91
2022-10-22T03:09:21.329Z,100939.66
2022-10-22T03:11:50.615Z,100952.75
2022-10-22T03:14:17.162Z,100948.25
2022-10-22T03:16:43.608Z,100949.72
2022-10-22T03:19:10.200Z,100944.38
2022-10-22T03:22:05.180Z,100945.22
2022-10-22T03:24:39.605Z,100954.66
2022-10-22T03:27:06.005Z,100951.09
2022-10-22T03:29:36.036Z,100957.19
2022-10-22T03:32:02.476Z,100951.75
2022-10-22T03:34:28.935Z,100954.38
2022-10-22T03:36:59.363Z,100959.63
2022-10-22T03:39:27.209Z,100950.69
2022-10-22T03:41:54.043Z,100953.63
2022-10-22T03:44:20.995Z,100944.94
2022-10-22T03:46:47.398Z,100950.16
2022-10-22T03:49:14.001Z,100959.81
2022-10-22T03:51:40.529Z,100957.19
2022-10-22T03:54:07.069Z,100961.56
2022-10-22T03:56:33.722Z,100968.53
2022-10-22T03:59:01.228Z,100961.56
2022-10-22T04:01:30.176Z,100978.16
2022-10-22T04:03:57.538Z,100964.94
2022-10-22T04:06:24.669Z,100972.94
2022-10-22T04:08:51.334Z,100978.38
2022-10-22T04:11:17.985Z,100973.13
2022-10-22T04:13:45.678Z,100976.91
2022-10-22T04:16:18.162Z,100975.09
2022-10-22T04:18:46.665Z,100972.56
2022-10-22T04:21:16.005Z,100974.47
2022-10-22T04:23:47.502Z,100978.75
2022-10-22T04:26:14.792Z,100978.97
2022-10-22T04:28:41.697Z,100975.59
2022-10-22T04:31:13.857Z,100980.81
2022-10-22T04:33:41.219Z,100990.38
2022-10-22T04:36:18.788Z,100985.16
2022-10-22T04:38:46.674Z,100987.78
2022-10-22T04:41:19.051Z,100991.31
2022-10-22T04:43:46.346Z,100991.31
2022-10-22T04:46:14.289Z,100986.81
2022-10-22T04:48:42.270Z,100987.56
2022-10-22T04:51:11.932Z,100990.19
2022-10-22T04:53:40.380Z,100994.50
2022-10-22T04:56:08.696Z,100989.25
2022-10-22T04:58:35.121Z,100996.28
2022-10-22T05:01:08.534Z,100995.31
2022-10-22T05:03:34.985Z,100996.28
2022-10-22T05:06:02.651Z,100998.06
2022-10-22T05:08:29.083Z,100999.94
2022-10-22T05:10:55.538Z,100998.44
2022-10-22T05:13:21.976Z,101005.34
2022-10-22T05:15:48.369Z,100997.63
2022-10-22T05:18:16.814Z,101002.22
2022-10-22T05:20:46.733Z,101004.06
2022-10-22T05:23:13.174Z,101006.06
2022-10-22T05:25:39.643Z,101007.00
2022-10-22T05:28:06.237Z,101009.69
2022-10-22T05:30:32.609Z,101010.91
2022-10-22T05:32:59.052Z,101006.75
2022-10-22T05:35:25.573Z,101005.03
2022-10-22T05:37:51.970Z,101005.22
2022-10-22T05:40:30.165Z,101007.97
2022-10-22T05:42:58.568Z,101011.59
2022-10-22T05:45:24.926Z,101010.88
2022-10-22T05:47:51.380Z,101012.75
2022-10-22T05:50:17.806Z,101011.97
2022-10-22T05:52:44.236Z,101020.03
2022-10-22T05:55:10.684Z,101031.38
2022-10-22T05:57:37.115Z,101028.00
2022-10-22T06:00:04.188Z,101020.03
2022-10-22T06:02:30.616Z,101031.44
2022-10-22T06:04:57.006Z,101032.28
2022-10-22T06:07:23.534Z,101034.84
2022-10-22T06:09:50.299Z,101043.34
2022-10-22T06:12:16.752Z,101043.97
2022-10-22T06:14:43.157Z,101051.66
2022-10-22T06:17:09.873Z,101051.72
2022-10-22T06:19:36.421Z,101050.91
2022-10-22T06:22:04.343Z,101056.31
2022-10-22T06:24:31.068Z,101066.81
2022-10-22T06:26:57.431Z,101058.03
2022-10-22T06:29:23.815Z,101057.16
2022-10-22T06:31:50.206Z,101068.50
2022-10-22T06:34:20.464Z,101072.69
2022-10-22T06:36:47.326Z,101076.06
2022-10-22T06:39:16.050Z,101079.53
2022-10-22T06:41:42.447Z,101077.75
2022-10-22T06:44:16.712Z,101083.94
2022-10-22T06:46:43.627Z,101090.94
2022-10-22T06:49:14.139Z,101101.31
2022-10-22T06:51:40.801Z,101098.69
2022-10-22T06:54:07.451Z,101103.03
2022-10-22T06:56:33.853Z,101106.47
2022-10-22T06:59:00.254Z,101112.38
2022-10-22T07:01:29.648Z,101116.59
2022-10-22T07:03:56.458Z,101118.06
2022-10-22T07:06:24.244Z,101117.88
2022-10-22T07:08:52.007Z,101116.66
2022-10-22T07:11:22.809Z,101121.50
2022-10-22T07:13:49.698Z,101121.13
2022-10-22T07:16:18.021Z,101129.56
2022-10-22T07:18:45.417Z,101130.94
2022-10-22T07:21:13.001Z,101131.31
2022-10-22T07:23:39.355Z,101135.41
2022-10-22T07:26:09.871Z,101138.81
2022-10-22T07:28:39.725Z,101136.91
2022-10-22T07:31:07.617Z,101135.56
2022-10-22T07:33:34.096Z,101139.63
2022-10-22T07:36:04.199Z,101148.69
2022-10-22T07:38:31.544Z,101148.06
2022-10-22T07:40:58.576Z,101150.13
2022-10-22T07:43:25.249Z,101155.69
2022-10-22T07:45:51.690Z,101156.88
2022-10-22T07:48:18.516Z,101155.47
2022-10-22T07:53:11.251Z,101168.97
2022-10-22T07:55:37.887Z,101167.41
2022-10-22T07:58:04.308Z,101166.25
2022-10-22T08:00:30.697Z,101168.66
2022-10-22T08:02:57.054Z,101168.53
2022-10-22T08:05:23.583Z,101169.09
2022-10-22T08:07:49.937Z,101182.09
2022-10-22T08:10:16.297Z,101179.81
2022-10-22T08:12:42.982Z,101176.03
2022-10-22T08:15:10.071Z,101186.22
2022-10-22T08:17:37.203Z,101179.69
2022-10-22T08:20:04.210Z,101187.91
2022-10-22T08:22:30.636Z,101198.13
2022-10-22T08:24:57.048Z,101197.28
2022-10-22T08:27:23.420Z,101198.97
2022-10-22T08:29:49.838Z,101202.34
2022-10-22T08:32:17.266Z,101204.63
2022-10-22T08:34:43.631Z,101206.44
2022-10-22T08:37:14.135Z,101205.47
2022-10-22T08:39:41.392Z,101209.69
2022-10-22T08:42:34.265Z,101210.31
2022-10-22T08:45:24.476Z,101210.59
2022-10-22T08:48:14.470Z,101218.81
2022-10-22T08:50:48.757Z,101218.19
2022-10-22T08:53:22.299Z,101223.44
2022-10-22T08:55:52.438Z,101229.41
2022-10-22T08:58:36.833Z,101228.47
2022-10-22T09:01:11.008Z,101228.47
2022-10-22T09:03:40.386Z,101230.25
2022-10-22T09:06:18.660Z,101237.09
2022-10-22T09:08:46.711Z,101242.25
2022-10-22T09:11:13.082Z,101241.09
2022-10-22T09:13:45.215Z,101244.97
2022-10-22T09:16:22.242Z,101245.16
2022-10-22T09:18:56.690Z,101251.66
2022-10-22T09:21:32.989Z,101249.53
2022-10-22T09:24:00.076Z,101256.16
2022-10-22T09:26:26.713Z,101252.03
2022-10-22T09:28:53.351Z,101265.47
2022-10-22T09:31:19.798Z,101260.97
2022-10-22T09:33:51.903Z,101270.66
2022-10-22T09:36:22.435Z,101267.38
2022-10-22T09:38:53.174Z,101271.28
2022-10-22T09:41:23.071Z,101270.94
2022-10-22T09:43:50.015Z,101269.38
2022-10-22T09:46:24.328Z,101269.84
2022-10-22T09:49:12.065Z,101267.78
2022-10-22T09:51:46.591Z,101270.81
2022-10-22T09:54:29.278Z,101278.66
2022-10-22T09:56:58.734Z,101276.63
2022-10-22T09:59:31.700Z,101286.69
2022-10-22T10:02:19.949Z,101288.66
2022-10-22T10:04:52.334Z,101288.88
2022-10-22T10:07:27.692Z,101299.06
2022-10-22T10:09:54.376Z,101306.13
2022-10-22T10:15:27.805Z,101310.13
2022-10-22T10:18:06.202Z,101306.22
2022-10-22T10:20:53.994Z,101300.13
2022-10-22T10:23:36.227Z,101308.13
2022-10-22T10:26:26.776Z,101310.53
2022-10-22T10:29:24.957Z,101323.50
2022-10-22T10:32:23.558Z,101324.19
2022-10-22T10:35:05.499Z,101324.94
2022-10-22T10:37:43.686Z,101329.59
2022-10-22T10:40:33.135Z,101328.78
2022-10-22T10:43:09.946Z,101332.84
2022-10-22T10:45:42.304Z,101333.53
2022-10-22T10:48:35.872Z,101342.34
2022-10-22T10:51:14.202Z,101339.34
2022-10-22T10:54:18.158Z,101347.47
2022-10-22T10:56:53.075Z,101338.81
2022-10-22T10:59:28.358Z,101347.72
2022-10-22T11:02:16.010Z,101340.53
2022-10-22T11:04:45.397Z,101351.78
2022-10-22T11:07:30.436Z,101345.44
2022-10-22T11:10:20.321Z,101356.97
2022-10-22T11:12:54.382Z,101348.78
2022-10-22T11:15:35.629Z,101356.84
2022-10-22T11:18:29.026Z,101352.41
2022-10-22T11:21:06.772Z,101358.28
2022-10-22T11:23:40.932Z,101365.59
2022-10-22T11:26:15.446Z,101361.28
2022-10-22T11:28:47.727Z,101375.91
2022-10-22T11:31:16.141Z,101368.59
2022-10-22T11:34:04.834Z,101366.06
2022-10-22T11:36:37.658Z,101365.13
2022-10-22T11:39:05.081Z,101366.06
2022-10-22T11:41:34.337Z,101371.69
2022-10-22T11:44:20.820Z,101363.03
2022-10-22T11:46:56.047Z,101364.84
2022-10-22T11:49:28.348Z,101376.72
2022-10-22T11:52:39.108Z,101373.88
2022-10-22T11:55:48.710Z,101360.41
2022-10-22T11:58:33.894Z,101371.94
2022-10-22T12:01:09.326Z,101378.91
2022-10-22T12:03:40.824Z,101372.66
2022-10-22T12:06:14.927Z,101371.34
2022-10-22T12:08:51.274Z,101377.69
2022-10-22T12:11:49.606Z,101371.44
2022-10-22T12:14:51.032Z,101375.41
2022-10-22T12:17:19.309Z,101372.41
2022-10-22T12:19:50.118Z,101374.13
2022-10-22T12:22:21.966Z,101374.84
2022-10-22T12:24:51.766Z,101389.50
2022-10-22T12:27:26.555Z,101390.56
2022-10-22T12:29:58.633Z,101385.06
2022-10-22T12:32:42.778Z,101379.78
2022-10-22T12:35:16.828Z,101384.81
2022-10-22T12:37:43.723Z,101386.84
2022-10-22T12:40:31.598Z,101387.03
2022-10-22T12:43:01.431Z,101389.66
2022-10-22T12:45:34.115Z,101386.44
2022-10-22T12:48:07.583Z,101389.50
2022-10-22T12:50:40.047Z,101385.84
2022-10-22T12:53:31.746Z,101382.56
2022-10-22T12:56:02.683Z,101379.47
2022-10-22T12:58:41.437Z,101382.69
2022-10-22T13:01:15.100Z,101376.28
2022-10-22T13:03:49.822Z,101375.44
2022-10-22T13:06:19.222Z,101384.22
2022-10-22T13:08:56.036Z,101389.66
2022-10-22T13:11:22.444Z,101383.84
2022-10-22T13:13:48.774Z,101379.00
2022-10-22T13:16:26.212Z,101381.53
2022-10-22T13:18:53.964Z,101382.03
2022-10-22T13:21:37.492Z,101377.72
2022-10-22T13:24:19.736Z,101375.47
2022-10-22T13:26:50.039Z,101379.16
2022-10-22T13:29:20.181Z,101382.28
2022-10-22T13:31:50.202Z,101384.25
2022-10-22T13:34:22.316Z,101387.16
2022-10-22T13:36:50.010Z,101385.28
2022-10-22T13:39:19.207Z,101392.06
2022-10-22T13:41:45.966Z,101391.66
2022-10-22T13:44:12.347Z,101395.28
2022-10-22T13:46:42.570Z,101395.38
2022-10-22T13:49:20.716Z,101397.66
2022-10-22T13:51:47.558Z,101401.91
2022-10-22T13:54:17.575Z,101403.59
2022-10-22T13:56:43.931Z,101394.00
2022-10-22T13:59:10.662Z,101408.69
2022-10-22T14:01:38.258Z,101407.22
2022-10-22T14:04:06.793Z,101408.19
2022-10-22T14:06:34.138Z,101401.25
2022-10-22T14:09:04.389Z,101405.31
2022-10-22T14:11:32.563Z,101410.22
2022-10-22T14:13:59.201Z,101400.63
2022-10-22T14:16:28.001Z,101402.91
2022-10-22T14:18:55.845Z,101399.69
2022-10-22T14:21:22.543Z,101411.34
2022-10-22T14:23:51.055Z,101407.22
2022-10-22T14:26:28.178Z,101408.06
2022-10-22T14:29:11.384Z,101405.31
2022-10-22T14:31:44.069Z,101403.16
2022-10-22T14:34:13.643Z,101413.25
2022-10-22T14:36:40.248Z,101410.38
2022-10-22T14:39:06.821Z,101414.44
2022-10-22T14:41:33.656Z,101416.28
2022-10-22T14:44:00.116Z,101426.25
2022-10-22T14:46:26.616Z,101431.53
2022-10-22T14:48:53.049Z,101431.28
2022-10-22T14:51:23.143Z,101435.75
2022-10-22T14:53:49.810Z,101434.03
2022-10-22T14:56:21.095Z,101441.25
2022-10-22T14:58:47.691Z,101437.88
2022-10-22T15:01:14.098Z,101442.34
2022-10-22T15:03:40.504Z,101446.66
2022-10-22T15:06:08.168Z,101449.28
2022-10-22T15:08:34.644Z,101441.00
2022-10-22T15:11:07.027Z,101445.09
2022-10-22T15:13:33.911Z,101447.97
2022-10-22T15:16:01.038Z,101451.66
2022-10-22T15:18:28.382Z,101450.22
2022-10-22T15:21:07.550Z,101451.19
2022-10-22T15:23:33.958Z,101456.72
2022-10-22T15:26:00.336Z,101455.03
2022-10-22T15:28:26.668Z,101467.50
2022-10-22T15:30:57.654Z,101459.94
2022-10-22T15:33:24.851Z,101455.75
2022-10-22T15:35:52.199Z,101459.56
2022-10-22T15:38:18.859Z,101470.47
2022-10-22T15:40:45.600Z,101466.50
2022-10-22T15:43:12.979Z,101466.00
2022-10-22T15:45:39.662Z,101472.34
2022-10-22T15:48:06.427Z,101476.31
2022-10-22T15:50:37.884Z,101471.44
2022-10-22T15:53:05.336Z,101472.88
2022-10-22T15:55:31.766Z,101472.56
2022-10-22T15:58:00.629Z,101471.34
2022-10-22T16:00:30.029Z,101468.31
2022-10-22T16:02:56.401Z,101464.69
2022-10-22T16:05:22.774Z,101463.34
2022-10-22T16:07:49.754Z,101473.38
2022-10-22T16:10:16.120Z,101468.66
2022-10-22T16:12:43.410Z,101469.94
2022-10-22T16:15:10.564Z,101472.28
2022-10-22T16:17:36.992Z,101476.28
2022-10-22T16:20:03.726Z,101477.59
2022-10-22T16:22:30.146Z,101477.19
2022-10-22T16:24:56.606Z,101471.72
2022-10-22T16:27:22.971Z,101481.84
2022-10-22T16:29:49.373Z,101482.88
2022-10-22T16:32:16.743Z,101484.13
2022-10-22T16:34:43.351Z,101487.28
2022-10-22T16:37:12.588Z,101489.63
2022-10-22T16:39:38.962Z,101484.13
2022-10-22T16:42:05.852Z,101492.56
2022-10-22T16:44:32.271Z,101495.69
2022-10-22T16:46:58.772Z,101498.75
2022-10-22T16:49:25.167Z,101489.28
2022-10-22T16:51:51.528Z,101493.72
2022-10-22T16:54:17.953Z,101492.22
2022-10-22T16:56:44.361Z,101501.56
2022-10-22T16:59:10.733Z,101492.50
2022-10-22T17:01:40.870Z,101495.63
2022-10-22T17:04:08.372Z,101497.91
2022-10-22T17:06:34.728Z,101496.00
2022-10-22T17:09:01.189Z,101499.22
2022-10-22T17:11:30.086Z,101506.00
2022-10-22T17:13:56.626Z,101499.34
2022-10-22T17:16:24.803Z,101499.81
2022-10-22T17:18:52.838Z,101504.41
2022-10-22T17:21:20.337Z,101508.19
2022-10-22T17:23:47.248Z,101513.63
2022-10-22T17:26:17.387Z,101506.06
2022-10-22T17:28:44.076Z,101509.63
2022-10-22T17:31:19.708Z,101523.88
2022-10-22T17:33:46.968Z,101523.03
2022-10-22T17:36:14.207Z,101530.91
2022-10-22T17:38:42.271Z,101534.56
2022-10-22T17:41:14.556Z,101535.81
2022-10-22T17:43:41.504Z,101529.25
2022-10-22T17:46:13.407Z,101535.72
2022-10-22T17:48:40.134Z,101534.22
2022-10-22T17:51:11.574Z,101541.63
2022-10-22T17:53:42.903Z,101531.41
2022-10-22T17:56:10.400Z,101536.94
2022-10-22T17:58:37.278Z,101526.53
2022-10-22T18:01:04.820Z,101528.41
2022-10-22T18:03:32.095Z,101530.44
2022-10-22T18:06:06.813Z,101532.53
2022-10-22T18:08:33.370Z,101538.63
2022-10-22T18:11:00.196Z,101535.91
2022-10-22T18:13:26.688Z,101538.53
2022-10-22T18:15:56.652Z,101547.25
2022-10-22T18:18:24.108Z,101554.06
2022-10-22T18:20:51.702Z,101548.09
2022-10-22T18:23:19.333Z,101546.19
2022-10-22T18:25:48.241Z,101548.09
2022-10-22T18:28:16.399Z,101547.25
2022-10-22T18:30:43.876Z,101545.66
2022-10-22T18:33:12.535Z,101546.78
2022-10-22T18:35:41.125Z,101544.50
2022-10-22T18:38:10.739Z,101551.53
2022-10-22T18:40:44.439Z,101547.13
2022-10-22T18:43:10.911Z,101547.31
2022-10-22T18:45:41.861Z,101548.25
2022-10-22T18:48:08.304Z,101553.50
2022-10-22T18:50:34.658Z,101556.31
2022-10-22T18:53:01.026Z,101563.53
2022-10-22T18:55:27.598Z,101560.13
2022-10-22T18:57:53.931Z,101551.41
2022-10-22T19:00:20.345Z,101551.69
2022-10-22T19:02:46.692Z,101560.94
2022-10-22T19:05:13.028Z,101564.69
2022-10-22T19:07:40.931Z,101552.47
2022-10-22T19:10:08.340Z,101546.72
2022-10-22T20:41:40.569Z,101553.22
2022-10-22T20:44:11.309Z,101541.22
2022-10-22T20:46:37.686Z,101544.91
2022-10-22T20:49:09.936Z,101544.06
2022-10-22T20:51:37.152Z,101553.72
2022-10-22T20:54:04.624Z,101548.47
2022-10-22T20:56:31.773Z,101549.41
2022-10-22T20:59:05.593Z,101554.03
2022-10-22T21:01:52.256Z,101555.06
2022-10-22T21:04:20.634Z,101553.28
2022-10-22T21:06:50.361Z,101547.22
2022-10-22T21:09:16.865Z,101549.84
2022-10-22T21:11:43.808Z,101553.28
2022-10-22T21:14:12.090Z,101554.97
2022-10-22T21:16:45.879Z,101549.75
2022-10-22T21:19:12.621Z,101548.13
2022-10-22T21:21:39.012Z,101553.53
2022-10-22T21:24:05.648Z,101550.84
2022-10-22T21:26:32.123Z,101563.00
2022-10-22T21:28:58.525Z,101561.22
2022-10-22T21:31:26.292Z,101563.84
2022-10-22T21:33:54.317Z,101563.94
2022-10-22T21:36:23.282Z,101565.78
2022-10-22T21:38:51.801Z,101553.53
2022-10-22T21:41:20.421Z,101547.28
2022-10-22T21:43:47.003Z,101558.69
2022-10-22T21:46:18.504Z,101543.03
2022-10-22T21:48:45.796Z,101551.00
2022-10-22T21:51:19.404Z,101564.09
2022-10-22T21:53:46.344Z,101562.41
2022-10-22T21:56:22.432Z,101567.66
2022-10-22T21:58:49.145Z,101564.34
2022-10-22T22:01:16.541Z,101559.97
2022-10-22T22:03:45.600Z,101560.69
2022-10-22T22:06:13.359Z,101566.72
2022-10-22T22:08:41.126Z,101564.94
2022-10-22T22:11:10.736Z,101570.44
2022-10-22T22:13:37.773Z,101564.53
2022-10-22T22:16:09.719Z,101554.44
2022-10-22T22:18:37.070Z,101553.84
2022-10-22T22:21:09.309Z,101553.00
2022-10-22T22:23:37.503Z,101546.03
2022-10-22T22:26:05.298Z,101548.59
2022-10-22T22:28:32.509Z,101545.88
2022-10-22T22:30:59.762Z,101539.81
2022-10-22T22:33:27.107Z,101540.59
2022-10-22T22:35:58.696Z,101534.41
2022-10-22T22:38:25.142Z,101529.19
2022-10-22T22:40:51.631Z,101528.34
2022-10-22T22:43:18.104Z,101529.34
2022-10-22T22:45:44.507Z,101523.25
2022-10-22T22:48:11.026Z,101530.13
2022-10-22T22:50:37.485Z,101530.13
2022-10-22T22:53:03.976Z,101530.84
2022-10-22T22:55:31.977Z,101527.34
2022-10-22T22:57:58.808Z,101516.09
2022-10-22T23:00:25.325Z,101523.00
2022-10-22T23:02:55.785Z,101520.38
2022-10-22T23:05:22.423Z,101517.75
2022-10-22T23:07:49.737Z,101521.22
2022-10-22T23:10:16.263Z,101509.06
2022-10-22T23:12:43.939Z,101517.75
2022-10-22T23:15:11.258Z,101509.16
2022-10-22T23:17:38.442Z,101509.31
2022-10-22T23:20:05.661Z,101500.63
2022-10-22T23:22:32.076Z,101505.88
2022-10-22T23:24:58.636Z,101504.25
2022-10-22T23:27:25.033Z,101503.47
2022-10-22T23:29:51.510Z,101501.69
2022-10-22T23:32:17.920Z,101497.41
2022-10-22T23:34:45.329Z,101508.81
2022-10-22T23:37:12.158Z,101517.66
2022-10-22T23:39:38.734Z,101522.31
2022-10-22T23:42:05.305Z,101514.63
2022-10-22T23:44:31.745Z,101512.06
2022-10-22T23:46:58.265Z,101514.78
2022-10-22T23:49:25.754Z,101505.31
2022-10-22T23:51:52.127Z,101488.91
2022-10-22T23:54:18.964Z,101485.53
2022-10-22T23:56:45.933Z,101478.69
